Terminal Aerodrome Forecast
Issued by NWS

Home | Current Version | Previous Version | Text Only | Print | Product List | Glossary On
Versions: 1 2 3 4 5 6 7 8 9 10 11 12 13 14 15 16 17 18 19 20
000
FTAK31 PAFA 220536
TAFAOT
TAF
PAOT 220536Z 2206/2306 11018KT 6SM -SN BLSN BR BKN025 OVC050
     FM220800 13018G25KT 3SM -SHSN BLSN BR BKN015 OVC025
     FM221000 15020KT 1SM -SN BR SCT007 OVC015
     FM221700 17018KT 1/2SM -SN FZFG BLSN OVC007
     FM230100 28017G24KT 1SM -SN BR BKN007 OVC015=

USA.gov is the U.S. government's official web portal to all federal, state and local government web resources and services.